Terminal Aerodrome Forecast
Issued by NWS Raleigh/Durham, NC

Current Version | Previous Version | Text Only | Print | Product List | Glossary On
Versions: 1 2 3 4 5 6 7 8 9 10 11 12 13 14 15 16 17 18 19 20 21 22 23
000 FTUS42 KRAH 172339 TAFFAY TAF KFAY 172339Z 1800/1824 20009KT P6SM SCT100 BKN250 TEMPO 1802/1806 6SM -RA FM180900 22008KT P6SM BKN010 FM181600 31012G19KT P6SM SCT030=

USA.gov is the U.S. government's official web portal to all federal, state and local government web resources and services.